Terminal Aerodrome Forecast
Issued by NWS Memphis, TN

Home | Current Version | Previous Version | Text Only | Print | Product List | Glossary On
Versions: 1 2 3 4 5 6 7 8 9 10 11 12 13 14 15
000
FTUS44 KMEG 242337
TAFMKL
TAF
KMKL 242337Z 2500/2524 22011G19KT P6SM VCSH BKN040
     FM250200 29011G20KT P6SM SKC
     FM251800 31010KT P6SM SKC=

USA.gov is the U.S. government's official web portal to all federal, state and local government web resources and services.